sensor_id;sensor_type;location;lat;lon;timestamp;P1;durP1;ratioP1;P2;durP2;ratioP2
83326;SDS011;73250;55.594;13.020;2024-01-10T00:01:15;100.00;;;74.80;;
83326;SDS011;73250;55.594;13.020;2024-01-10T00:03:42;92.93;;;75.28;;
83326;SDS011;73250;55.594;13.020;2024-01-10T00:06:09;98.38;;;70.85;;
83326;SDS011;73250;55.594;13.020;2024-01-10T00:08:36;100.82;;;77.07;;
83326;SDS011;73250;55.594;13.020;2024-01-10T00:11:03;98.30;;;74.85;;
83326;SDS011;73250;55.594;13.020;2024-01-10T00:13:33;100.05;;;76.15;;
83326;SDS011;73250;55.594;13.020;2024-01-10T00:15:59;102.93;;;78.43;;
83326;SDS011;73250;55.594;13.020;2024-01-10T00:18:26;99.47;;;75.50;;
83326;SDS011;73250;55.594;13.020;2024-01-10T00:20:53;101.93;;;77.55;;
83326;SDS011;73250;55.594;13.020;2024-01-10T00:23:20;97.82;;;75.10;;
83326;SDS011;73250;55.594;13.020;2024-01-10T00:25:46;99.43;;;76.15;;
83326;SDS011;73250;55.594;13.020;2024-01-10T00:28:13;102.38;;;76.07;;
83326;SDS011;73250;55.594;13.020;2024-01-10T00:30:43;95.68;;;70.93;;
83326;SDS011;73250;55.594;13.020;2024-01-10T00:33:09;102.72;;;76.68;;
83326;SDS011;73250;55.594;13.020;2024-01-10T00:35:36;99.15;;;74.05;;
83326;SDS011;73250;55.594;13.020;2024-01-10T00:38:03;100.05;;;75.28;;
83326;SDS011;73250;55.594;13.020;2024-01-10T00:40:30;102.13;;;78.07;;
83326;SDS011;73250;55.594;13.020;2024-01-10T00:42:56;98.55;;;76.95;;
83326;SDS011;73250;55.594;13.020;2024-01-10T00:45:23;102.63;;;78.20;;
83326;SDS011;73250;55.594;13.020;2024-01-10T00:47:51;98.65;;;76.95;;
83326;SDS011;73250;55.594;13.020;2024-01-10T00:50:18;99.05;;;75.95;;
83326;SDS011;73250;55.594;13.020;2024-01-10T00:52:45;98.40;;;73.40;;
83326;SDS011;73250;55.594;13.020;2024-01-10T00:55:12;95.32;;;73.35;;
83326;SDS011;73250;55.594;13.020;2024-01-10T00:57:39;94.32;;;70.32;;
83326;SDS011;73250;55.594;13.020;2024-01-10T01:00:06;98.95;;;75.47;;
83326;SDS011;73250;55.594;13.020;2024-01-10T01:02:34;95.05;;;73.10;;
83326;SDS011;73250;55.594;13.020;2024-01-10T01:05:02;99.82;;;74.78;;
83326;SDS011;73250;55.594;13.020;2024-01-10T01:07:29;100.65;;;76.07;;
83326;SDS011;73250;55.594;13.020;2024-01-10T01:09:55;100.07;;;74.68;;
83326;SDS011;73250;55.594;13.020;2024-01-10T01:12:22;98.07;;;75.50;;
83326;SDS011;73250;55.594;13.020;2024-01-10T01:14:49;101.05;;;76.75;;
83326;SDS011;73250;55.594;13.020;2024-01-10T01:17:15;98.15;;;72.88;;
83326;SDS011;73250;55.594;13.020;2024-01-10T01:19:42;95.75;;;72.55;;
83326;SDS011;73250;55.594;13.020;2024-01-10T01:22:10;97.82;;;72.78;;
83326;SDS011;73250;55.594;13.020;2024-01-10T01:24:36;100.97;;;75.15;;
83326;SDS011;73250;55.594;13.020;2024-01-10T01:27:03;94.35;;;73.38;;
83326;SDS011;73250;55.594;13.020;2024-01-10T01:29:30;94.30;;;71.75;;
83326;SDS011;73250;55.594;13.020;2024-01-10T01:31:56;101.53;;;74.57;;
83326;SDS011;73250;55.594;13.020;2024-01-10T01:34:23;101.07;;;73.25;;
83326;SDS011;73250;55.594;13.020;2024-01-10T01:36:50;97.82;;;74.53;;
83326;SDS011;73250;55.594;13.020;2024-01-10T01:39:18;100.70;;;73.40;;
83326;SDS011;73250;55.594;13.020;2024-01-10T01:41:45;94.82;;;70.78;;
83326;SDS011;73250;55.594;13.020;2024-01-10T01:44:12;97.25;;;72.68;;
83326;SDS011;73250;55.594;13.020;2024-01-10T01:46:39;97.90;;;72.68;;
83326;SDS011;73250;55.594;13.020;2024-01-10T01:49:06;91.47;;;69.35;;
83326;SDS011;73250;55.594;13.020;2024-01-10T01:51:33;95.00;;;71.93;;
83326;SDS011;73250;55.594;13.020;2024-01-10T01:54:02;96.68;;;70.63;;
83326;SDS011;73250;55.594;13.020;2024-01-10T01:56:33;99.03;;;73.25;;
83326;SDS011;73250;55.594;13.020;2024-01-10T01:59:01;94.82;;;70.32;;
83326;SDS011;73250;55.594;13.020;2024-01-10T02:01:28;98.32;;;74.60;;
83326;SDS011;73250;55.594;13.020;2024-01-10T02:03:55;92.05;;;69.88;;
83326;SDS011;73250;55.594;13.020;2024-01-10T02:06:22;102.68;;;72.88;;
83326;SDS011;73250;55.594;13.020;2024-01-10T02:08:49;93.25;;;72.63;;
83326;SDS011;73250;55.594;13.020;2024-01-10T02:11:17;99.07;;;76.05;;
83326;SDS011;73250;55.594;13.020;2024-01-10T02:13:47;97.78;;;75.18;;
83326;SDS011;73250;55.594;13.020;2024-01-10T02:16:14;101.75;;;76.80;;
83326;SDS011;73250;55.594;13.020;2024-01-10T02:18:41;106.55;;;78.55;;
83326;SDS011;73250;55.594;13.020;2024-01-10T02:21:07;99.20;;;75.20;;
83326;SDS011;73250;55.594;13.020;2024-01-10T02:23:34;97.88;;;71.28;;
83326;SDS011;73250;55.594;13.020;2024-01-10T02:26:02;95.03;;;73.93;;
83326;SDS011;73250;55.594;13.020;2024-01-10T02:28:29;94.03;;;70.55;;
83326;SDS011;73250;55.594;13.020;2024-01-10T02:30:55;99.13;;;74.85;;
83326;SDS011;73250;55.594;13.020;2024-01-10T02:33:23;97.22;;;74.35;;
83326;SDS011;73250;55.594;13.020;2024-01-10T02:35:49;97.82;;;72.70;;
83326;SDS011;73250;55.594;13.020;2024-01-10T02:38:16;100.63;;;73.43;;
83326;SDS011;73250;55.594;13.020;2024-01-10T02:40:45;98.95;;;74.63;;
83326;SDS011;73250;55.594;13.020;2024-01-10T02:43:13;100.43;;;76.82;;
83326;SDS011;73250;55.594;13.020;2024-01-10T02:45:40;96.05;;;72.07;;
83326;SDS011;73250;55.594;13.020;2024-01-10T02:48:06;98.35;;;75.47;;
83326;SDS011;73250;55.594;13.020;2024-01-10T02:50:33;95.57;;;72.18;;
83326;SDS011;73250;55.594;13.020;2024-01-10T02:53:00;95.82;;;69.57;;
83326;SDS011;73250;55.594;13.020;2024-01-10T02:55:26;90.25;;;70.80;;
83326;SDS011;73250;55.594;13.020;2024-01-10T02:57:53;95.10;;;72.10;;
83326;SDS011;73250;55.594;13.020;2024-01-10T03:00:21;92.63;;;71.55;;
83326;SDS011;73250;55.594;13.020;2024-01-10T03:02:48;90.85;;;69.63;;
83326;SDS011;73250;55.594;13.020;2024-01-10T03:05:14;94.65;;;69.75;;
83326;SDS011;73250;55.594;13.020;2024-01-10T03:07:41;93.35;;;70.07;;
83326;SDS011;73250;55.594;13.020;2024-01-10T03:10:08;95.97;;;70.57;;
83326;SDS011;73250;55.594;13.020;2024-01-10T03:12:35;94.45;;;69.65;;
83326;SDS011;73250;55.594;13.020;2024-01-10T03:15:02;91.55;;;69.00;;
83326;SDS011;73250;55.594;13.020;2024-01-10T03:17:31;94.47;;;70.63;;
83326;SDS011;73250;55.594;13.020;2024-01-10T03:19:58;97.75;;;73.97;;
83326;SDS011;73250;55.594;13.020;2024-01-10T03:22:25;101.07;;;75.60;;
83326;SDS011;73250;55.594;13.020;2024-01-10T03:24:52;94.85;;;70.97;;
83326;SDS011;73250;55.594;13.020;2024-01-10T03:27:18;93.65;;;69.45;;
83326;SDS011;73250;55.594;13.020;2024-01-10T03:29:45;89.72;;;68.75;;
83326;SDS011;73250;55.594;13.020;2024-01-10T03:32:12;90.80;;;70.28;;
83326;SDS011;73250;55.594;13.020;2024-01-10T03:34:40;92.43;;;68.32;;
83326;SDS011;73250;55.594;13.020;2024-01-10T03:37:07;90.18;;;67.38;;
83326;SDS011;73250;55.594;13.020;2024-01-10T03:39:34;88.45;;;67.82;;
83326;SDS011;73250;55.594;13.020;2024-01-10T03:42:00;94.78;;;70.65;;
83326;SDS011;73250;55.594;13.020;2024-01-10T03:44:27;97.72;;;73.53;;
83326;SDS011;73250;55.594;13.020;2024-01-10T03:46:54;95.38;;;71.00;;
83326;SDS011;73250;55.594;13.020;2024-01-10T03:49:20;96.00;;;73.05;;
83326;SDS011;73250;55.594;13.020;2024-01-10T03:51:48;95.53;;;73.85;;
83326;SDS011;73250;55.594;13.020;2024-01-10T03:54:14;92.03;;;69.38;;
83326;SDS011;73250;55.594;13.020;2024-01-10T03:56:40;96.03;;;71.82;;
83326;SDS011;73250;55.594;13.020;2024-01-10T03:59:07;96.80;;;70.18;;
83326;SDS011;73250;55.594;13.020;2024-01-10T04:01:34;92.97;;;69.05;;
83326;SDS011;73250;55.594;13.020;2024-01-10T04:04:04;96.82;;;71.28;;
83326;SDS011;73250;55.594;13.020;2024-01-10T04:06:30;90.40;;;70.32;;
83326;SDS011;73250;55.594;13.020;2024-01-10T04:08:58;98.32;;;70.95;;
83326;SDS011;73250;55.594;13.020;2024-01-10T04:11:25;99.57;;;74.97;;
83326;SDS011;73250;55.594;13.020;2024-01-10T04:13:52;96.38;;;74.00;;
83326;SDS011;73250;55.594;13.020;2024-01-10T04:16:18;93.88;;;69.97;;
83326;SDS011;73250;55.594;13.020;2024-01-10T04:18:45;92.43;;;69.85;;
83326;SDS011;73250;55.594;13.020;2024-01-10T04:21:11;98.78;;;73.90;;
83326;SDS011;73250;55.594;13.020;2024-01-10T04:23:38;93.57;;;70.05;;
83326;SDS011;73250;55.594;13.020;2024-01-10T04:26:06;89.78;;;68.80;;
83326;SDS011;73250;55.594;13.020;2024-01-10T04:28:33;90.32;;;67.15;;
83326;SDS011;73250;55.594;13.020;2024-01-10T04:30:59;89.55;;;68.53;;
83326;SDS011;73250;55.594;13.020;2024-01-10T04:33:26;93.90;;;70.68;;
83326;SDS011;73250;55.594;13.020;2024-01-10T04:35:53;93.00;;;69.75;;
83326;SDS011;73250;55.594;13.020;2024-01-10T04:38:19;95.88;;;71.30;;
83326;SDS011;73250;55.594;13.020;2024-01-10T04:40:46;94.93;;;69.85;;
83326;SDS011;73250;55.594;13.020;2024-01-10T04:43:14;91.32;;;69.10;;
83326;SDS011;73250;55.594;13.020;2024-01-10T04:45:41;92.13;;;68.65;;
83326;SDS011;73250;55.594;13.020;2024-01-10T04:48:07;92.80;;;70.93;;
83326;SDS011;73250;55.594;13.020;2024-01-10T04:50:34;96.20;;;70.78;;
83326;SDS011;73250;55.594;13.020;2024-01-10T04:53:01;92.15;;;68.80;;
83326;SDS011;73250;55.594;13.020;2024-01-10T04:55:28;91.57;;;68.60;;
83326;SDS011;73250;55.594;13.020;2024-01-10T04:57:54;94.38;;;69.60;;
83326;SDS011;73250;55.594;13.020;2024-01-10T05:00:22;88.80;;;66.22;;
83326;SDS011;73250;55.594;13.020;2024-01-10T05:02:49;91.22;;;66.13;;
83326;SDS011;73250;55.594;13.020;2024-01-10T05:05:16;83.43;;;64.05;;
83326;SDS011;73250;55.594;13.020;2024-01-10T05:07:48;88.50;;;66.72;;
83326;SDS011;73250;55.594;13.020;2024-01-10T05:10:15;86.47;;;63.78;;
83326;SDS011;73250;55.594;13.020;2024-01-10T05:12:42;86.70;;;65.13;;
83326;SDS011;73250;55.594;13.020;2024-01-10T05:15:09;92.72;;;67.28;;
83326;SDS011;73250;55.594;13.020;2024-01-10T05:17:37;86.68;;;64.50;;
83326;SDS011;73250;55.594;13.020;2024-01-10T05:20:04;83.35;;;62.28;;
83326;SDS011;73250;55.594;13.020;2024-01-10T05:22:31;88.35;;;66.72;;
83326;SDS011;73250;55.594;13.020;2024-01-10T05:24:58;91.15;;;65.03;;
83326;SDS011;73250;55.594;13.020;2024-01-10T05:27:25;86.50;;;65.03;;
83326;SDS011;73250;55.594;13.020;2024-01-10T05:29:52;94.20;;;68.28;;
83326;SDS011;73250;55.594;13.020;2024-01-10T05:32:19;98.07;;;70.32;;
83326;SDS011;73250;55.594;13.020;2024-01-10T05:34:47;92.82;;;70.00;;
83326;SDS011;73250;55.594;13.020;2024-01-10T05:37:14;94.57;;;70.90;;
83326;SDS011;73250;55.594;13.020;2024-01-10T05:39:41;91.82;;;69.68;;
83326;SDS011;73250;55.594;13.020;2024-01-10T05:42:07;91.28;;;68.05;;
83326;SDS011;73250;55.594;13.020;2024-01-10T05:44:34;90.38;;;67.70;;
83326;SDS011;73250;55.594;13.020;2024-01-10T05:52:59;92.30;;;66.60;;
83326;SDS011;73250;55.594;13.020;2024-01-10T05:55:27;96.18;;;69.45;;
83326;SDS011;73250;55.594;13.020;2024-01-10T05:57:54;91.00;;;68.00;;
83326;SDS011;73250;55.594;13.020;2024-01-10T06:00:20;89.90;;;65.60;;
83326;SDS011;73250;55.594;13.020;2024-01-10T06:02:47;93.90;;;68.55;;
83326;SDS011;73250;55.594;13.020;2024-01-10T06:05:14;88.95;;;68.07;;
83326;SDS011;73250;55.594;13.020;2024-01-10T06:07:40;95.85;;;72.47;;
83326;SDS011;73250;55.594;13.020;2024-01-10T06:10:09;99.90;;;74.38;;
83326;SDS011;73250;55.594;13.020;2024-01-10T06:12:35;103.72;;;75.50;;
83326;SDS011;73250;55.594;13.020;2024-01-10T06:15:03;98.55;;;72.47;;
83326;SDS011;73250;55.594;13.020;2024-01-10T06:17:31;95.32;;;70.80;;
83326;SDS011;73250;55.594;13.020;2024-01-10T06:19:58;98.47;;;72.80;;
83326;SDS011;73250;55.594;13.020;2024-01-10T06:22:25;91.53;;;67.40;;
83326;SDS011;73250;55.594;13.020;2024-01-10T06:24:52;87.20;;;62.80;;
83326;SDS011;73250;55.594;13.020;2024-01-10T06:27:19;84.68;;;62.92;;
83326;SDS011;73250;55.594;13.020;2024-01-10T06:29:46;78.38;;;58.38;;
83326;SDS011;73250;55.594;13.020;2024-01-10T06:32:13;76.88;;;56.50;;
83326;SDS011;73250;55.594;13.020;2024-01-10T06:34:40;74.10;;;53.42;;
83326;SDS011;73250;55.594;13.020;2024-01-10T06:37:07;66.55;;;49.90;;
83326;SDS011;73250;55.594;13.020;2024-01-10T06:39:34;61.35;;;46.83;;
83326;SDS011;73250;55.594;13.020;2024-01-10T06:42:00;54.53;;;43.15;;
83326;SDS011;73250;55.594;13.020;2024-01-10T06:44:30;53.40;;;40.90;;
83326;SDS011;73250;55.594;13.020;2024-01-10T06:46:56;49.78;;;39.33;;
83326;SDS011;73250;55.594;13.020;2024-01-10T06:49:23;49.95;;;38.10;;
83326;SDS011;73250;55.594;13.020;2024-01-10T06:51:49;44.83;;;36.38;;
83326;SDS011;73250;55.594;13.020;2024-01-10T06:54:16;44.90;;;33.92;;
83326;SDS011;73250;55.594;13.020;2024-01-10T06:56:44;42.60;;;32.95;;
83326;SDS011;73250;55.594;13.020;2024-01-10T06:59:10;39.75;;;32.72;;
83326;SDS011;73250;55.594;13.020;2024-01-10T07:01:39;46.08;;;33.40;;
83326;SDS011;73250;55.594;13.020;2024-01-10T07:04:05;38.50;;;30.88;;
83326;SDS011;73250;55.594;13.020;2024-01-10T07:06:32;32.33;;;27.17;;
83326;SDS011;73250;55.594;13.020;2024-01-10T07:08:59;34.50;;;26.95;;
83326;SDS011;73250;55.594;13.020;2024-01-10T07:11:25;29.95;;;24.63;;
83326;SDS011;73250;55.594;13.020;2024-01-10T07:13:54;30.13;;;23.70;;
83326;SDS011;73250;55.594;13.020;2024-01-10T07:16:20;30.42;;;23.73;;
83326;SDS011;73250;55.594;13.020;2024-01-10T07:18:48;27.45;;;22.52;;
83326;SDS011;73250;55.594;13.020;2024-01-10T07:21:16;27.15;;;21.17;;
83326;SDS011;73250;55.594;13.020;2024-01-10T07:23:43;27.60;;;22.35;;
83326;SDS011;73250;55.594;13.020;2024-01-10T07:26:09;28.52;;;22.45;;
83326;SDS011;73250;55.594;13.020;2024-01-10T07:28:39;29.67;;;22.67;;
83326;SDS011;73250;55.594;13.020;2024-01-10T07:31:06;25.30;;;20.33;;
83326;SDS011;73250;55.594;13.020;2024-01-10T07:33:33;24.88;;;20.52;;
83326;SDS011;73250;55.594;13.020;2024-01-10T07:36:01;22.02;;;18.23;;
83326;SDS011;73250;55.594;13.020;2024-01-10T07:38:28;22.38;;;17.60;;
83326;SDS011;73250;55.594;13.020;2024-01-10T07:40:55;22.80;;;16.25;;
83326;SDS011;73250;55.594;13.020;2024-01-10T07:43:24;17.83;;;15.88;;
83326;SDS011;73250;55.594;13.020;2024-01-10T07:45:50;19.13;;;15.90;;
83326;SDS011;73250;55.594;13.020;2024-01-10T07:48:18;19.67;;;15.80;;
83326;SDS011;73250;55.594;13.020;2024-01-10T07:50:45;24.15;;;18.75;;
83326;SDS011;73250;55.594;13.020;2024-01-10T07:53:13;24.35;;;19.48;;
83326;SDS011;73250;55.594;13.020;2024-01-10T07:55:40;22.95;;;17.92;;
83326;SDS011;73250;55.594;13.020;2024-01-10T07:58:06;27.33;;;16.15;;
83326;SDS011;73250;55.594;13.020;2024-01-10T08:00:33;29.95;;;20.65;;
83326;SDS011;73250;55.594;13.020;2024-01-10T08:03:00;32.75;;;23.33;;
83326;SDS011;73250;55.594;13.020;2024-01-10T08:05:27;33.92;;;22.88;;
83326;SDS011;73250;55.594;13.020;2024-01-10T08:07:53;43.83;;;30.02;;
83326;SDS011;73250;55.594;13.020;2024-01-10T08:10:22;44.47;;;28.08;;
83326;SDS011;73250;55.594;13.020;2024-01-10T08:12:49;41.70;;;30.10;;
83326;SDS011;73250;55.594;13.020;2024-01-10T08:15:17;49.92;;;32.50;;
83326;SDS011;73250;55.594;13.020;2024-01-10T08:17:45;61.55;;;39.15;;
83326;SDS011;73250;55.594;13.020;2024-01-10T08:20:11;51.10;;;34.53;;
83326;SDS011;73250;55.594;13.020;2024-01-10T08:22:40;74.25;;;47.03;;
83326;SDS011;73250;55.594;13.020;2024-01-10T08:25:06;67.05;;;45.65;;
83326;SDS011;73250;55.594;13.020;2024-01-10T08:27:34;73.65;;;48.60;;
83326;SDS011;73250;55.594;13.020;2024-01-10T08:30:01;83.15;;;53.58;;
83326;SDS011;73250;55.594;13.020;2024-01-10T08:32:29;64.90;;;43.95;;
83326;SDS011;73250;55.594;13.020;2024-01-10T08:34:56;77.55;;;52.80;;
83326;SDS011;73250;55.594;13.020;2024-01-10T08:37:23;84.00;;;50.95;;
83326;SDS011;73250;55.594;13.020;2024-01-10T08:39:49;84.82;;;54.83;;
83326;SDS011;73250;55.594;13.020;2024-01-10T08:42:16;84.78;;;54.03;;
83326;SDS011;73250;55.594;13.020;2024-01-10T08:44:44;84.22;;;53.88;;
83326;SDS011;73250;55.594;13.020;2024-01-10T08:47:10;78.90;;;51.80;;
83326;SDS011;73250;55.594;13.020;2024-01-10T08:49:37;83.38;;;55.13;;
83326;SDS011;73250;55.594;13.020;2024-01-10T08:52:04;81.30;;;51.88;;
83326;SDS011;73250;55.594;13.020;2024-01-10T08:54:31;77.35;;;51.75;;
83326;SDS011;73250;55.594;13.020;2024-01-10T08:56:58;100.10;;;59.78;;
83326;SDS011;73250;55.594;13.020;2024-01-10T08:59:25;94.65;;;59.45;;
83326;SDS011;73250;55.594;13.020;2024-01-10T09:01:54;97.15;;;59.15;;
83326;SDS011;73250;55.594;13.020;2024-01-10T09:04:21;119.97;;;69.85;;
83326;SDS011;73250;55.594;13.020;2024-01-10T09:06:47;110.82;;;67.00;;
83326;SDS011;73250;55.594;13.020;2024-01-10T09:09:14;107.30;;;64.65;;
83326;SDS011;73250;55.594;13.020;2024-01-10T09:11:45;98.97;;;57.88;;
83326;SDS011;73250;55.594;13.020;2024-01-10T09:14:13;91.53;;;58.22;;
83326;SDS011;73250;55.594;13.020;2024-01-10T09:16:39;93.68;;;56.65;;
83326;SDS011;73250;55.594;13.020;2024-01-10T09:19:07;108.47;;;58.90;;
83326;SDS011;73250;55.594;13.020;2024-01-10T09:21:34;99.85;;;57.05;;
83326;SDS011;73250;55.594;13.020;2024-01-10T09:24:01;118.25;;;71.45;;
83326;SDS011;73250;55.594;13.020;2024-01-10T09:26:30;110.43;;;69.18;;
83326;SDS011;73250;55.594;13.020;2024-01-10T09:28:57;103.88;;;63.17;;
83326;SDS011;73250;55.594;13.020;2024-01-10T09:31:24;119.72;;;67.85;;
83326;SDS011;73250;55.594;13.020;2024-01-10T09:33:50;101.40;;;60.60;;
83326;SDS011;73250;55.594;13.020;2024-01-10T09:36:18;121.53;;;71.88;;
83326;SDS011;73250;55.594;13.020;2024-01-10T09:38:45;116.05;;;73.72;;
83326;SDS011;73250;55.594;13.020;2024-01-10T09:41:11;100.97;;;60.22;;
83326;SDS011;73250;55.594;13.020;2024-01-10T09:43:37;113.93;;;69.95;;
83326;SDS011;73250;55.594;13.020;2024-01-10T09:46:04;111.10;;;68.57;;
83326;SDS011;73250;55.594;13.020;2024-01-10T09:48:33;96.60;;;57.65;;
83326;SDS011;73250;55.594;13.020;2024-01-10T09:51:00;117.90;;;66.35;;
83326;SDS011;73250;55.594;13.020;2024-01-10T09:53:28;100.75;;;60.80;;
83326;SDS011;73250;55.594;13.020;2024-01-10T09:55:57;94.63;;;58.85;;
83326;SDS011;73250;55.594;13.020;2024-01-10T09:58:26;131.55;;;75.13;;
83326;SDS011;73250;55.594;13.020;2024-01-10T10:00:52;114.35;;;67.32;;
83326;SDS011;73250;55.594;13.020;2024-01-10T10:03:20;101.25;;;62.97;;
83326;SDS011;73250;55.594;13.020;2024-01-10T10:05:46;108.18;;;65.90;;
83326;SDS011;73250;55.594;13.020;2024-01-10T10:08:14;103.55;;;63.42;;
83326;SDS011;73250;55.594;13.020;2024-01-10T10:10:49;107.35;;;65.50;;
83326;SDS011;73250;55.594;13.020;2024-01-10T10:13:25;97.38;;;64.55;;
83326;SDS011;73250;55.594;13.020;2024-01-10T10:15:59;126.63;;;75.00;;
83326;SDS011;73250;55.594;13.020;2024-01-10T10:18:26;113.20;;;66.45;;
83326;SDS011;73250;55.594;13.020;2024-01-10T10:21:09;120.63;;;71.30;;
83326;SDS011;73250;55.594;13.020;2024-01-10T10:23:37;110.13;;;69.57;;
83326;SDS011;73250;55.594;13.020;2024-01-10T10:26:12;107.45;;;67.70;;
83326;SDS011;73250;55.594;13.020;2024-01-10T10:28:44;107.50;;;68.97;;
83326;SDS011;73250;55.594;13.020;2024-01-10T10:31:11;98.22;;;63.72;;
83326;SDS011;73250;55.594;13.020;2024-01-10T10:33:38;104.47;;;64.45;;
83326;SDS011;73250;55.594;13.020;2024-01-10T10:36:05;98.72;;;63.92;;
83326;SDS011;73250;55.594;13.020;2024-01-10T10:38:32;100.97;;;65.30;;
83326;SDS011;73250;55.594;13.020;2024-01-10T10:40:59;106.30;;;65.97;;
83326;SDS011;73250;55.594;13.020;2024-01-10T10:43:27;125.40;;;75.80;;
83326;SDS011;73250;55.594;13.020;2024-01-10T10:45:57;157.57;;;88.50;;
83326;SDS011;73250;55.594;13.020;2024-01-10T10:48:24;173.65;;;93.68;;
83326;SDS011;73250;55.594;13.020;2024-01-10T10:50:54;158.55;;;90.47;;
83326;SDS011;73250;55.594;13.020;2024-01-10T10:53:25;135.75;;;78.13;;
83326;SDS011;73250;55.594;13.020;2024-01-10T10:55:53;141.20;;;78.80;;
83326;SDS011;73250;55.594;13.020;2024-01-10T10:58:21;139.48;;;76.75;;
83326;SDS011;73250;55.594;13.020;2024-01-10T11:00:49;125.93;;;75.85;;
83326;SDS011;73250;55.594;13.020;2024-01-10T11:03:17;122.57;;;73.13;;
83326;SDS011;73250;55.594;13.020;2024-01-10T11:05:44;121.00;;;70.90;;
83326;SDS011;73250;55.594;13.020;2024-01-10T11:08:14;106.75;;;66.22;;
83326;SDS011;73250;55.594;13.020;2024-01-10T11:10:45;122.30;;;67.18;;
83326;SDS011;73250;55.594;13.020;2024-01-10T11:16:28;152.95;;;88.85;;
83326;SDS011;73250;55.594;13.020;2024-01-10T11:19:14;205.27;;;108.10;;
83326;SDS011;73250;55.594;13.020;2024-01-10T11:22:00;229.48;;;113.43;;
83326;SDS011;73250;55.594;13.020;2024-01-10T11:24:37;213.75;;;112.75;;
83326;SDS011;73250;55.594;13.020;2024-01-10T11:27:07;197.43;;;101.07;;
83326;SDS011;73250;55.594;13.020;2024-01-10T11:29:37;186.68;;;102.03;;
83326;SDS011;73250;55.594;13.020;2024-01-10T11:32:06;177.63;;;98.85;;
83326;SDS011;73250;55.594;13.020;2024-01-10T11:34:34;166.43;;;94.45;;
83326;SDS011;73250;55.594;13.020;2024-01-10T11:37:10;160.77;;;89.95;;
83326;SDS011;73250;55.594;13.020;2024-01-10T11:39:40;153.93;;;86.40;;
83326;SDS011;73250;55.594;13.020;2024-01-10T11:42:07;151.60;;;86.68;;
83326;SDS011;73250;55.594;13.020;2024-01-10T11:44:35;146.95;;;86.43;;
83326;SDS011;73250;55.594;13.020;2024-01-10T11:47:14;140.90;;;81.95;;
83326;SDS011;73250;55.594;13.020;2024-01-10T11:49:52;148.32;;;89.15;;
83326;SDS011;73250;55.594;13.020;2024-01-10T11:52:21;140.43;;;83.18;;
83326;SDS011;73250;55.594;13.020;2024-01-10T11:54:47;136.65;;;83.30;;
83326;SDS011;73250;55.594;13.020;2024-01-10T11:57:18;129.68;;;79.47;;
83326;SDS011;73250;55.594;13.020;2024-01-10T11:59:46;132.35;;;75.85;;
83326;SDS011;73250;55.594;13.020;2024-01-10T12:02:14;132.60;;;78.97;;
83326;SDS011;73250;55.594;13.020;2024-01-10T12:04:42;118.78;;;76.05;;
83326;SDS011;73250;55.594;13.020;2024-01-10T12:07:10;135.50;;;83.63;;
83326;SDS011;73250;55.594;13.020;2024-01-10T12:09:37;124.07;;;74.60;;
83326;SDS011;73250;55.594;13.020;2024-01-10T12:12:05;116.47;;;73.25;;
83326;SDS011;73250;55.594;13.020;2024-01-10T12:14:32;144.95;;;89.63;;
83326;SDS011;73250;55.594;13.020;2024-01-10T12:17:00;120.10;;;75.50;;
83326;SDS011;73250;55.594;13.020;2024-01-10T12:19:30;122.18;;;74.00;;
83326;SDS011;73250;55.594;13.020;2024-01-10T12:21:57;112.80;;;69.97;;
83326;SDS011;73250;55.594;13.020;2024-01-10T12:24:24;118.20;;;74.50;;
83326;SDS011;73250;55.594;13.020;2024-01-10T12:26:54;114.78;;;70.68;;
83326;SDS011;73250;55.594;13.020;2024-01-10T12:29:21;106.95;;;68.10;;
83326;SDS011;73250;55.594;13.020;2024-01-10T12:31:50;116.68;;;71.22;;
83326;SDS011;73250;55.594;13.020;2024-01-10T12:34:17;128.75;;;80.57;;
83326;SDS011;73250;55.594;13.020;2024-01-10T12:36:45;122.55;;;77.45;;
83326;SDS011;73250;55.594;13.020;2024-01-10T12:39:12;133.45;;;84.00;;
83326;SDS011;73250;55.594;13.020;2024-01-10T12:41:40;114.93;;;71.97;;
83326;SDS011;73250;55.594;13.020;2024-01-10T12:44:07;163.82;;;93.57;;
83326;SDS011;73250;55.594;13.020;2024-01-10T12:46:33;130.32;;;77.38;;
83326;SDS011;73250;55.594;13.020;2024-01-10T12:49:01;154.65;;;89.32;;
83326;SDS011;73250;55.594;13.020;2024-01-10T12:51:30;156.38;;;89.53;;
83326;SDS011;73250;55.594;13.020;2024-01-10T12:53:59;168.32;;;92.25;;
83326;SDS011;73250;55.594;13.020;2024-01-10T12:56:27;200.93;;;110.90;;
83326;SDS011;73250;55.594;13.020;2024-01-10T12:58:54;181.80;;;97.65;;
83326;SDS011;73250;55.594;13.020;2024-01-10T13:01:21;185.13;;;101.78;;
83326;SDS011;73250;55.594;13.020;2024-01-10T13:03:48;189.23;;;98.35;;
83326;SDS011;73250;55.594;13.020;2024-01-10T13:06:14;233.35;;;101.43;;
83326;SDS011;73250;55.594;13.020;2024-01-10T13:08:41;195.13;;;102.13;;
83326;SDS011;73250;55.594;13.020;2024-01-10T13:11:09;182.80;;;93.50;;
83326;SDS011;73250;55.594;13.020;2024-01-10T13:13:37;196.20;;;104.25;;
83326;SDS011;73250;55.594;13.020;2024-01-10T13:16:05;158.43;;;85.45;;
83326;SDS011;73250;55.594;13.020;2024-01-10T13:18:32;150.88;;;79.80;;
83326;SDS011;73250;55.594;13.020;2024-01-10T13:20:58;151.95;;;87.20;;
83326;SDS011;73250;55.594;13.020;2024-01-10T13:23:25;153.35;;;78.90;;
83326;SDS011;73250;55.594;13.020;2024-01-10T13:25:52;144.82;;;75.90;;
83326;SDS011;73250;55.594;13.020;2024-01-10T13:28:20;154.65;;;88.43;;
83326;SDS011;73250;55.594;13.020;2024-01-10T13:30:47;151.85;;;80.15;;
83326;SDS011;73250;55.594;13.020;2024-01-10T13:33:15;138.88;;;77.88;;
83326;SDS011;73250;55.594;13.020;2024-01-10T13:35:43;133.70;;;79.00;;
83326;SDS011;73250;55.594;13.020;2024-01-10T13:38:10;143.18;;;80.40;;
83326;SDS011;73250;55.594;13.020;2024-01-10T13:40:37;126.43;;;73.82;;
83326;SDS011;73250;55.594;13.020;2024-01-10T13:43:03;128.50;;;72.78;;
83326;SDS011;73250;55.594;13.020;2024-01-10T13:45:31;120.53;;;72.78;;
83326;SDS011;73250;55.594;13.020;2024-01-10T13:47:58;114.53;;;68.13;;
83326;SDS011;73250;55.594;13.020;2024-01-10T13:50:25;114.95;;;64.38;;
83326;SDS011;73250;55.594;13.020;2024-01-10T13:52:53;125.45;;;71.28;;
83326;SDS011;73250;55.594;13.020;2024-01-10T13:55:20;110.85;;;64.50;;
83326;SDS011;73250;55.594;13.020;2024-01-10T13:57:48;122.28;;;69.00;;
83326;SDS011;73250;55.594;13.020;2024-01-10T14:00:15;114.13;;;66.63;;
83326;SDS011;73250;55.594;13.020;2024-01-10T14:02:43;124.03;;;68.38;;
83326;SDS011;73250;55.594;13.020;2024-01-10T14:05:10;111.82;;;63.97;;
83326;SDS011;73250;55.594;13.020;2024-01-10T14:07:36;118.35;;;69.82;;
83326;SDS011;73250;55.594;13.020;2024-01-10T14:10:03;107.43;;;69.32;;
83326;SDS011;73250;55.594;13.020;2024-01-10T14:12:31;104.65;;;63.28;;
83326;SDS011;73250;55.594;13.020;2024-01-10T14:14:58;106.22;;;62.13;;